Terminal Aerodrome Forecast
Issued by NWS

Home | Current Version | Previous Version | Text Only | Print | Product List | Glossary On
Versions: 1 2 3 4 5 6 7 8 9 10 11 12 13 14
000
FTUS45 KGGW 272330
TAFSDY
TAF
KSDY 272330Z 2800/2824 02007KT P6SM BKN060
     FM280300 05004KT P6SM VCTS BKN050CB
     FM280800 08004KT P6SM VCSH OVC025
     FM281600 08004KT P6SM VCSH OVC035
     FM282100 12006KT P6SM VCSH BKN050=

USA.gov is the U.S. government's official web portal to all federal, state and local government web resources and services.